sensor_id;sensor_type;location;lat;lon;timestamp;P1;durP1;ratioP1;P2;durP2;ratioP2
7607;SDS011;3845;48.120;11.534;2022-12-08T00:01:06;10.37;;;7.70;;
7607;SDS011;3845;48.120;11.534;2022-12-08T00:03:32;10.67;;;8.50;;
7607;SDS011;3845;48.120;11.534;2022-12-08T00:05:57;10.33;;;8.37;;
7607;SDS011;3845;48.120;11.534;2022-12-08T00:08:41;10.73;;;8.10;;
7607;SDS011;3845;48.120;11.534;2022-12-08T00:11:25;10.03;;;8.07;;
7607;SDS011;3845;48.120;11.534;2022-12-08T00:13:50;10.37;;;8.40;;
7607;SDS011;3845;48.120;11.534;2022-12-08T00:16:16;9.97;;;8.47;;
7607;SDS011;3845;48.120;11.534;2022-12-08T00:18:41;10.30;;;7.80;;
7607;SDS011;3845;48.120;11.534;2022-12-08T00:21:06;11.80;;;8.93;;
7607;SDS011;3845;48.120;11.534;2022-12-08T00:23:33;10.90;;;8.20;;
7607;SDS011;3845;48.120;11.534;2022-12-08T00:26:02;10.37;;;8.07;;
7607;SDS011;3845;48.120;11.534;2022-12-08T00:28:28;11.43;;;8.83;;
7607;SDS011;3845;48.120;11.534;2022-12-08T00:30:53;11.90;;;9.30;;
7607;SDS011;3845;48.120;11.534;2022-12-08T00:33:19;12.43;;;10.43;;
7607;SDS011;3845;48.120;11.534;2022-12-08T00:35:44;11.73;;;9.50;;
7607;SDS011;3845;48.120;11.534;2022-12-08T00:38:09;14.00;;;9.87;;
7607;SDS011;3845;48.120;11.534;2022-12-08T00:40:35;15.10;;;11.83;;
7607;SDS011;3845;48.120;11.534;2022-12-08T00:43:00;13.03;;;10.53;;
7607;SDS011;3845;48.120;11.534;2022-12-08T00:45:25;13.17;;;10.13;;
7607;SDS011;3845;48.120;11.534;2022-12-08T00:47:50;11.63;;;9.43;;
7607;SDS011;3845;48.120;11.534;2022-12-08T00:50:16;12.03;;;9.20;;
7607;SDS011;3845;48.120;11.534;2022-12-08T00:52:41;10.47;;;8.57;;
7607;SDS011;3845;48.120;11.534;2022-12-08T00:55:06;10.30;;;8.40;;
7607;SDS011;3845;48.120;11.534;2022-12-08T00:57:32;10.17;;;8.23;;
7607;SDS011;3845;48.120;11.534;2022-12-08T00:59:57;10.10;;;8.10;;
7607;SDS011;3845;48.120;11.534;2022-12-08T01:02:23;11.17;;;8.20;;
7607;SDS011;3845;48.120;11.534;2022-12-08T01:04:48;11.30;;;8.40;;
7607;SDS011;3845;48.120;11.534;2022-12-08T01:07:14;10.07;;;8.07;;
7607;SDS011;3845;48.120;11.534;2022-12-08T01:09:39;11.83;;;8.43;;
7607;SDS011;3845;48.120;11.534;2022-12-08T01:12:04;9.43;;;8.00;;
7607;SDS011;3845;48.120;11.534;2022-12-08T01:14:30;10.50;;;8.20;;
7607;SDS011;3845;48.120;11.534;2022-12-08T01:16:55;10.23;;;7.97;;
7607;SDS011;3845;48.120;11.534;2022-12-08T01:19:21;11.10;;;8.20;;
7607;SDS011;3845;48.120;11.534;2022-12-08T01:21:46;10.37;;;8.57;;
7607;SDS011;3845;48.120;11.534;2022-12-08T01:24:12;9.87;;;8.00;;
7607;SDS011;3845;48.120;11.534;2022-12-08T01:26:38;10.77;;;8.53;;
7607;SDS011;3845;48.120;11.534;2022-12-08T01:29:04;11.07;;;9.00;;
7607;SDS011;3845;48.120;11.534;2022-12-08T01:31:29;11.57;;;8.93;;
7607;SDS011;3845;48.120;11.534;2022-12-08T01:33:54;11.57;;;8.97;;
7607;SDS011;3845;48.120;11.534;2022-12-08T01:36:24;11.57;;;8.77;;
7607;SDS011;3845;48.120;11.534;2022-12-08T01:38:51;12.40;;;9.20;;
7607;SDS011;3845;48.120;11.534;2022-12-08T01:41:18;9.97;;;8.33;;
7607;SDS011;3845;48.120;11.534;2022-12-08T01:46:27;11.70;;;8.93;;
7607;SDS011;3845;48.120;11.534;2022-12-08T01:48:55;12.90;;;9.93;;
7607;SDS011;3845;48.120;11.534;2022-12-08T01:51:25;12.73;;;9.20;;
7607;SDS011;3845;48.120;11.534;2022-12-08T01:53:50;13.53;;;9.97;;
7607;SDS011;3845;48.120;11.534;2022-12-08T01:56:19;11.77;;;9.20;;
7607;SDS011;3845;48.120;11.534;2022-12-08T01:58:50;10.10;;;7.97;;
7607;SDS011;3845;48.120;11.534;2022-12-08T02:01:17;11.03;;;8.47;;
7607;SDS011;3845;48.120;11.534;2022-12-08T02:06:18;11.47;;;9.47;;
7607;SDS011;3845;48.120;11.534;2022-12-08T02:08:43;11.80;;;8.67;;
7607;SDS011;3845;48.120;11.534;2022-12-08T02:11:10;10.50;;;8.77;;
7607;SDS011;3845;48.120;11.534;2022-12-08T02:13:35;10.23;;;8.47;;
7607;SDS011;3845;48.120;11.534;2022-12-08T02:27:07;10.70;;;8.50;;
7607;SDS011;3845;48.120;11.534;2022-12-08T02:29:49;11.77;;;9.00;;
7607;SDS011;3845;48.120;11.534;2022-12-08T02:32:27;10.90;;;8.70;;
7607;SDS011;3845;48.120;11.534;2022-12-08T02:37:48;11.60;;;8.60;;
7607;SDS011;3845;48.120;11.534;2022-12-08T02:42:46;10.43;;;8.43;;
7607;SDS011;3845;48.120;11.534;2022-12-08T02:46:00;10.63;;;8.80;;
7607;SDS011;3845;48.120;11.534;2022-12-08T02:48:11;11.90;;;8.70;;
7607;SDS011;3845;48.120;11.534;2022-12-08T02:50:36;11.77;;;9.27;;
7607;SDS011;3845;48.120;11.534;2022-12-08T02:53:01;12.13;;;8.97;;
7607;SDS011;3845;48.120;11.534;2022-12-08T02:56:13;12.40;;;9.60;;
7607;SDS011;3845;48.120;11.534;2022-12-08T03:01:06;11.00;;;8.60;;
7607;SDS011;3845;48.120;11.534;2022-12-08T03:03:59;13.03;;;9.00;;
7607;SDS011;3845;48.120;11.534;2022-12-08T03:09:12;11.53;;;8.70;;
7607;SDS011;3845;48.120;11.534;2022-12-08T03:11:52;12.93;;;9.67;;
7607;SDS011;3845;48.120;11.534;2022-12-08T03:14:33;11.63;;;8.80;;
7607;SDS011;3845;48.120;11.534;2022-12-08T03:16:59;12.20;;;8.73;;
7607;SDS011;3845;48.120;11.534;2022-12-08T03:19:31;11.37;;;8.67;;
7607;SDS011;3845;48.120;11.534;2022-12-08T03:21:59;11.77;;;8.93;;
7607;SDS011;3845;48.120;11.534;2022-12-08T03:24:27;11.70;;;9.07;;
7607;SDS011;3845;48.120;11.534;2022-12-08T03:26:59;11.87;;;8.77;;
7607;SDS011;3845;48.120;11.534;2022-12-08T03:29:27;11.17;;;8.97;;
7607;SDS011;3845;48.120;11.534;2022-12-08T03:31:55;13.10;;;9.17;;
7607;SDS011;3845;48.120;11.534;2022-12-08T03:34:22;12.53;;;9.33;;
7607;SDS011;3845;48.120;11.534;2022-12-08T03:36:50;10.97;;;8.90;;
7607;SDS011;3845;48.120;11.534;2022-12-08T03:39:15;12.00;;;9.33;;
7607;SDS011;3845;48.120;11.534;2022-12-08T03:41:40;12.27;;;9.60;;
7607;SDS011;3845;48.120;11.534;2022-12-08T03:44:06;12.57;;;9.70;;
7607;SDS011;3845;48.120;11.534;2022-12-08T03:46:31;10.97;;;8.50;;
7607;SDS011;3845;48.120;11.534;2022-12-08T03:48:56;12.53;;;9.80;;
7607;SDS011;3845;48.120;11.534;2022-12-08T03:51:22;12.10;;;9.20;;
7607;SDS011;3845;48.120;11.534;2022-12-08T03:53:48;12.97;;;9.57;;
7607;SDS011;3845;48.120;11.534;2022-12-08T03:58:48;13.03;;;9.60;;
7607;SDS011;3845;48.120;11.534;2022-12-08T04:01:13;12.47;;;9.70;;
7607;SDS011;3845;48.120;11.534;2022-12-08T04:03:38;11.70;;;9.23;;
7607;SDS011;3845;48.120;11.534;2022-12-08T04:06:04;11.00;;;8.70;;
7607;SDS011;3845;48.120;11.534;2022-12-08T04:08:29;12.17;;;8.80;;
7607;SDS011;3845;48.120;11.534;2022-12-08T04:10:55;11.77;;;9.67;;
7607;SDS011;3845;48.120;11.534;2022-12-08T04:13:20;12.73;;;9.57;;
7607;SDS011;3845;48.120;11.534;2022-12-08T04:15:46;13.03;;;8.90;;
7607;SDS011;3845;48.120;11.534;2022-12-08T04:18:12;12.77;;;9.77;;
7607;SDS011;3845;48.120;11.534;2022-12-08T04:20:38;11.43;;;9.27;;
7607;SDS011;3845;48.120;11.534;2022-12-08T04:23:05;12.30;;;9.10;;
7607;SDS011;3845;48.120;11.534;2022-12-08T04:25:30;12.53;;;9.40;;
7607;SDS011;3845;48.120;11.534;2022-12-08T04:27:55;11.53;;;8.93;;
7607;SDS011;3845;48.120;11.534;2022-12-08T04:30:20;12.83;;;9.53;;
7607;SDS011;3845;48.120;11.534;2022-12-08T04:32:46;13.07;;;9.73;;
7607;SDS011;3845;48.120;11.534;2022-12-08T04:35:11;12.67;;;9.90;;
7607;SDS011;3845;48.120;11.534;2022-12-08T04:37:36;12.50;;;9.30;;
7607;SDS011;3845;48.120;11.534;2022-12-08T04:40:01;11.40;;;9.20;;
7607;SDS011;3845;48.120;11.534;2022-12-08T04:42:27;12.60;;;9.40;;
7607;SDS011;3845;48.120;11.534;2022-12-08T04:44:52;12.93;;;9.53;;
7607;SDS011;3845;48.120;11.534;2022-12-08T04:47:17;12.13;;;9.27;;
7607;SDS011;3845;48.120;11.534;2022-12-08T04:49:44;12.13;;;9.27;;
7607;SDS011;3845;48.120;11.534;2022-12-08T04:52:10;12.27;;;9.37;;
7607;SDS011;3845;48.120;11.534;2022-12-08T04:54:35;12.70;;;9.13;;
7607;SDS011;3845;48.120;11.534;2022-12-08T04:57:00;11.80;;;9.07;;
7607;SDS011;3845;48.120;11.534;2022-12-08T04:59:25;11.70;;;9.07;;
7607;SDS011;3845;48.120;11.534;2022-12-08T05:01:51;12.07;;;9.27;;
7607;SDS011;3845;48.120;11.534;2022-12-08T05:04:16;13.17;;;10.20;;
7607;SDS011;3845;48.120;11.534;2022-12-08T05:06:41;11.97;;;9.10;;
7607;SDS011;3845;48.120;11.534;2022-12-08T05:09:06;11.43;;;9.37;;
7607;SDS011;3845;48.120;11.534;2022-12-08T05:11:32;11.97;;;9.33;;
7607;SDS011;3845;48.120;11.534;2022-12-08T05:13:57;12.10;;;8.97;;
7607;SDS011;3845;48.120;11.534;2022-12-08T05:16:22;11.37;;;9.60;;
7607;SDS011;3845;48.120;11.534;2022-12-08T05:18:47;12.47;;;9.57;;
7607;SDS011;3845;48.120;11.534;2022-12-08T05:21:13;12.83;;;10.20;;
7607;SDS011;3845;48.120;11.534;2022-12-08T05:23:38;11.10;;;8.67;;
7607;SDS011;3845;48.120;11.534;2022-12-08T05:26:03;13.67;;;9.83;;
7607;SDS011;3845;48.120;11.534;2022-12-08T05:28:29;12.90;;;9.67;;
7607;SDS011;3845;48.120;11.534;2022-12-08T05:30:54;13.17;;;9.67;;
7607;SDS011;3845;48.120;11.534;2022-12-08T05:33:19;13.43;;;9.87;;
7607;SDS011;3845;48.120;11.534;2022-12-08T05:35:44;15.90;;;10.20;;
7607;SDS011;3845;48.120;11.534;2022-12-08T05:38:10;13.50;;;9.73;;
7607;SDS011;3845;48.120;11.534;2022-12-08T05:40:36;12.00;;;9.40;;
7607;SDS011;3845;48.120;11.534;2022-12-08T05:43:02;13.50;;;10.10;;
7607;SDS011;3845;48.120;11.534;2022-12-08T05:45:28;12.30;;;9.57;;
7607;SDS011;3845;48.120;11.534;2022-12-08T05:47:53;11.70;;;9.27;;
7607;SDS011;3845;48.120;11.534;2022-12-08T05:50:18;12.50;;;9.17;;
7607;SDS011;3845;48.120;11.534;2022-12-08T05:52:44;11.60;;;8.87;;
7607;SDS011;3845;48.120;11.534;2022-12-08T05:55:09;12.40;;;9.37;;
7607;SDS011;3845;48.120;11.534;2022-12-08T05:57:34;12.27;;;8.50;;
7607;SDS011;3845;48.120;11.534;2022-12-08T05:59:59;10.53;;;8.30;;
7607;SDS011;3845;48.120;11.534;2022-12-08T06:02:25;11.13;;;8.40;;
7607;SDS011;3845;48.120;11.534;2022-12-08T06:04:50;10.50;;;8.37;;
7607;SDS011;3845;48.120;11.534;2022-12-08T06:07:16;10.13;;;8.20;;
7607;SDS011;3845;48.120;11.534;2022-12-08T06:09:41;9.30;;;7.77;;
7607;SDS011;3845;48.120;11.534;2022-12-08T06:12:07;10.43;;;8.37;;
7607;SDS011;3845;48.120;11.534;2022-12-08T06:14:32;10.00;;;8.37;;
7607;SDS011;3845;48.120;11.534;2022-12-08T06:16:57;9.53;;;7.97;;
7607;SDS011;3845;48.120;11.534;2022-12-08T06:19:22;9.27;;;7.73;;
7607;SDS011;3845;48.120;11.534;2022-12-08T06:21:48;10.40;;;8.27;;
7607;SDS011;3845;48.120;11.534;2022-12-08T06:24:13;10.17;;;8.00;;
7607;SDS011;3845;48.120;11.534;2022-12-08T06:26:38;8.93;;;7.33;;
7607;SDS011;3845;48.120;11.534;2022-12-08T06:29:05;10.97;;;7.87;;
7607;SDS011;3845;48.120;11.534;2022-12-08T06:31:30;8.20;;;6.97;;
7607;SDS011;3845;48.120;11.534;2022-12-08T06:33:56;11.17;;;8.00;;
7607;SDS011;3845;48.120;11.534;2022-12-08T06:36:22;9.43;;;7.87;;
7607;SDS011;3845;48.120;11.534;2022-12-08T06:38:49;9.47;;;7.83;;
7607;SDS011;3845;48.120;11.534;2022-12-08T06:41:15;10.00;;;7.90;;
7607;SDS011;3845;48.120;11.534;2022-12-08T06:43:40;9.97;;;7.60;;
7607;SDS011;3845;48.120;11.534;2022-12-08T06:46:07;9.43;;;7.50;;
7607;SDS011;3845;48.120;11.534;2022-12-08T06:48:34;8.43;;;7.13;;
7607;SDS011;3845;48.120;11.534;2022-12-08T06:51:10;9.20;;;7.50;;
7607;SDS011;3845;48.120;11.534;2022-12-08T06:53:37;9.63;;;7.30;;
7607;SDS011;3845;48.120;11.534;2022-12-08T06:56:03;8.17;;;7.27;;
7607;SDS011;3845;48.120;11.534;2022-12-08T06:58:28;9.47;;;7.47;;
7607;SDS011;3845;48.120;11.534;2022-12-08T07:00:53;9.30;;;7.43;;
7607;SDS011;3845;48.120;11.534;2022-12-08T07:03:19;10.10;;;7.83;;
7607;SDS011;3845;48.120;11.534;2022-12-08T07:05:44;9.00;;;7.63;;
7607;SDS011;3845;48.120;11.534;2022-12-08T07:08:09;9.10;;;7.20;;
7607;SDS011;3845;48.120;11.534;2022-12-08T07:10:35;9.93;;;7.80;;
7607;SDS011;3845;48.120;11.534;2022-12-08T07:13:00;10.67;;;8.13;;
7607;SDS011;3845;48.120;11.534;2022-12-08T07:15:26;9.20;;;7.30;;
7607;SDS011;3845;48.120;11.534;2022-12-08T07:17:51;10.43;;;7.80;;
7607;SDS011;3845;48.120;11.534;2022-12-08T07:20:16;8.83;;;7.13;;
7607;SDS011;3845;48.120;11.534;2022-12-08T07:22:48;10.73;;;8.17;;
7607;SDS011;3845;48.120;11.534;2022-12-08T07:25:17;11.03;;;8.20;;
7607;SDS011;3845;48.120;11.534;2022-12-08T07:27:43;10.10;;;7.93;;
7607;SDS011;3845;48.120;11.534;2022-12-08T07:30:08;9.87;;;7.57;;
7607;SDS011;3845;48.120;11.534;2022-12-08T07:32:35;9.67;;;7.73;;
7607;SDS011;3845;48.120;11.534;2022-12-08T07:35:01;10.67;;;7.97;;
7607;SDS011;3845;48.120;11.534;2022-12-08T07:37:26;10.57;;;8.03;;
7607;SDS011;3845;48.120;11.534;2022-12-08T07:39:51;10.40;;;8.07;;
7607;SDS011;3845;48.120;11.534;2022-12-08T07:42:16;10.00;;;8.20;;
7607;SDS011;3845;48.120;11.534;2022-12-08T07:44:42;10.30;;;8.30;;
7607;SDS011;3845;48.120;11.534;2022-12-08T07:47:07;11.50;;;8.30;;
7607;SDS011;3845;48.120;11.534;2022-12-08T07:49:32;10.77;;;8.53;;
7607;SDS011;3845;48.120;11.534;2022-12-08T07:51:57;9.63;;;7.90;;
7607;SDS011;3845;48.120;11.534;2022-12-08T07:54:23;10.30;;;8.27;;
7607;SDS011;3845;48.120;11.534;2022-12-08T07:56:48;11.10;;;8.33;;
7607;SDS011;3845;48.120;11.534;2022-12-08T07:59:13;10.43;;;8.30;;
7607;SDS011;3845;48.120;11.534;2022-12-08T08:01:39;9.67;;;8.17;;
7607;SDS011;3845;48.120;11.534;2022-12-08T08:04:04;10.03;;;7.87;;
7607;SDS011;3845;48.120;11.534;2022-12-08T08:06:30;9.00;;;7.27;;
7607;SDS011;3845;48.120;11.534;2022-12-08T08:08:56;9.63;;;8.07;;
7607;SDS011;3845;48.120;11.534;2022-12-08T08:11:21;10.10;;;7.90;;
7607;SDS011;3845;48.120;11.534;2022-12-08T08:13:47;9.07;;;7.53;;
7607;SDS011;3845;48.120;11.534;2022-12-08T08:16:13;9.70;;;7.20;;
7607;SDS011;3845;48.120;11.534;2022-12-08T08:18:39;9.23;;;7.40;;
7607;SDS011;3845;48.120;11.534;2022-12-08T08:21:04;9.30;;;6.87;;
7607;SDS011;3845;48.120;11.534;2022-12-08T08:23:30;8.50;;;6.80;;
7607;SDS011;3845;48.120;11.534;2022-12-08T08:25:57;9.07;;;6.47;;
7607;SDS011;3845;48.120;11.534;2022-12-08T08:28:24;7.57;;;6.23;;
7607;SDS011;3845;48.120;11.534;2022-12-08T08:30:49;7.73;;;6.30;;
7607;SDS011;3845;48.120;11.534;2022-12-08T08:33:14;7.57;;;6.37;;
7607;SDS011;3845;48.120;11.534;2022-12-08T08:35:40;10.47;;;8.13;;
7607;SDS011;3845;48.120;11.534;2022-12-08T08:38:06;11.40;;;8.63;;
7607;SDS011;3845;48.120;11.534;2022-12-08T08:40:31;10.63;;;8.07;;
7607;SDS011;3845;48.120;11.534;2022-12-08T08:42:58;10.87;;;8.13;;
7607;SDS011;3845;48.120;11.534;2022-12-08T08:45:24;10.73;;;7.60;;
7607;SDS011;3845;48.120;11.534;2022-12-08T08:47:50;10.97;;;7.60;;
7607;SDS011;3845;48.120;11.534;2022-12-08T08:50:15;9.77;;;7.60;;
7607;SDS011;3845;48.120;11.534;2022-12-08T08:52:40;8.63;;;7.27;;
7607;SDS011;3845;48.120;11.534;2022-12-08T08:55:06;10.17;;;8.00;;
7607;SDS011;3845;48.120;11.534;2022-12-08T08:57:32;10.43;;;7.77;;
7607;SDS011;3845;48.120;11.534;2022-12-08T08:59:57;13.50;;;9.87;;
7607;SDS011;3845;48.120;11.534;2022-12-08T09:02:22;12.63;;;9.40;;
7607;SDS011;3845;48.120;11.534;2022-12-08T09:04:47;12.20;;;8.63;;
7607;SDS011;3845;48.120;11.534;2022-12-08T09:07:13;10.70;;;8.63;;
7607;SDS011;3845;48.120;11.534;2022-12-08T09:09:39;11.37;;;8.57;;
7607;SDS011;3845;48.120;11.534;2022-12-08T09:12:05;10.53;;;8.07;;
7607;SDS011;3845;48.120;11.534;2022-12-08T09:14:30;11.13;;;9.07;;
7607;SDS011;3845;48.120;11.534;2022-12-08T09:16:56;11.30;;;9.33;;
7607;SDS011;3845;48.120;11.534;2022-12-08T09:19:21;11.40;;;9.43;;
7607;SDS011;3845;48.120;11.534;2022-12-08T09:21:46;15.37;;;11.60;;
7607;SDS011;3845;48.120;11.534;2022-12-08T09:24:12;19.17;;;13.30;;
7607;SDS011;3845;48.120;11.534;2022-12-08T09:26:40;18.33;;;13.00;;
7607;SDS011;3845;48.120;11.534;2022-12-08T09:29:06;20.53;;;15.27;;
7607;SDS011;3845;48.120;11.534;2022-12-08T09:31:31;17.83;;;12.80;;
7607;SDS011;3845;48.120;11.534;2022-12-08T09:33:57;16.20;;;12.03;;
7607;SDS011;3845;48.120;11.534;2022-12-08T09:36:23;14.60;;;11.30;;
7607;SDS011;3845;48.120;11.534;2022-12-08T09:38:49;14.77;;;11.90;;
7607;SDS011;3845;48.120;11.534;2022-12-08T09:43:57;13.80;;;11.10;;
7607;SDS011;3845;48.120;11.534;2022-12-08T09:46:27;12.80;;;9.93;;
7607;SDS011;3845;48.120;11.534;2022-12-08T09:48:56;15.00;;;11.30;;
7607;SDS011;3845;48.120;11.534;2022-12-08T09:51:24;12.97;;;10.20;;
7607;SDS011;3845;48.120;11.534;2022-12-08T09:53:52;11.97;;;9.43;;
7607;SDS011;3845;48.120;11.534;2022-12-08T09:56:23;10.70;;;8.70;;
7607;SDS011;3845;48.120;11.534;2022-12-08T09:58:58;11.83;;;8.43;;
7607;SDS011;3845;48.120;11.534;2022-12-08T10:01:29;10.20;;;8.10;;
7607;SDS011;3845;48.120;11.534;2022-12-08T10:03:56;11.70;;;7.83;;
7607;SDS011;3845;48.120;11.534;2022-12-08T10:06:32;10.30;;;7.70;;
7607;SDS011;3845;48.120;11.534;2022-12-08T10:14:51;9.87;;;7.80;;
7607;SDS011;3845;48.120;11.534;2022-12-08T10:17:26;12.37;;;9.07;;
7607;SDS011;3845;48.120;11.534;2022-12-08T10:19:56;12.73;;;9.30;;
7607;SDS011;3845;48.120;11.534;2022-12-08T10:22:25;13.23;;;9.70;;
7607;SDS011;3845;48.120;11.534;2022-12-08T10:24:56;12.97;;;9.60;;
7607;SDS011;3845;48.120;11.534;2022-12-08T10:27:24;11.63;;;9.03;;
7607;SDS011;3845;48.120;11.534;2022-12-08T10:29:50;14.00;;;10.33;;
7607;SDS011;3845;48.120;11.534;2022-12-08T10:32:17;23.13;;;16.03;;
7607;SDS011;3845;48.120;11.534;2022-12-08T10:34:57;19.73;;;14.17;;
7607;SDS011;3845;48.120;11.534;2022-12-08T10:37:27;19.73;;;14.37;;
7607;SDS011;3845;48.120;11.534;2022-12-08T10:39:59;16.57;;;12.93;;
7607;SDS011;3845;48.120;11.534;2022-12-08T10:42:30;17.67;;;13.10;;
7607;SDS011;3845;48.120;11.534;2022-12-08T10:45:08;16.23;;;12.77;;
7607;SDS011;3845;48.120;11.534;2022-12-08T10:47:42;19.80;;;14.40;;
7607;SDS011;3845;48.120;11.534;2022-12-08T10:50:20;17.73;;;12.37;;
7607;SDS011;3845;48.120;11.534;2022-12-08T10:52:55;19.03;;;13.23;;
7607;SDS011;3845;48.120;11.534;2022-12-08T10:55:25;19.73;;;14.60;;
7607;SDS011;3845;48.120;11.534;2022-12-08T10:57:51;18.27;;;14.17;;
7607;SDS011;3845;48.120;11.534;2022-12-08T11:00:17;18.40;;;14.53;;
7607;SDS011;3845;48.120;11.534;2022-12-08T11:02:56;19.47;;;14.20;;
7607;SDS011;3845;48.120;11.534;2022-12-08T11:05:31;16.87;;;12.13;;
7607;SDS011;3845;48.120;11.534;2022-12-08T11:07:58;17.27;;;12.17;;
7607;SDS011;3845;48.120;11.534;2022-12-08T11:10:34;14.20;;;11.27;;
7607;SDS011;3845;48.120;11.534;2022-12-08T11:13:02;16.33;;;12.00;;
7607;SDS011;3845;48.120;11.534;2022-12-08T11:15:31;15.20;;;11.70;;
7607;SDS011;3845;48.120;11.534;2022-12-08T11:18:00;26.13;;;19.77;;
7607;SDS011;3845;48.120;11.534;2022-12-08T11:20:37;23.57;;;16.37;;
7607;SDS011;3845;48.120;11.534;2022-12-08T11:23:16;18.67;;;14.33;;
7607;SDS011;3845;48.120;11.534;2022-12-08T11:25:43;18.93;;;14.20;;
7607;SDS011;3845;48.120;11.534;2022-12-08T11:28:08;22.00;;;15.33;;
7607;SDS011;3845;48.120;11.534;2022-12-08T11:30:38;19.03;;;13.90;;
7607;SDS011;3845;48.120;11.534;2022-12-08T11:33:20;19.63;;;13.43;;
7607;SDS011;3845;48.120;11.534;2022-12-08T11:36:01;22.20;;;17.00;;
7607;SDS011;3845;48.120;11.534;2022-12-08T11:38:29;21.87;;;16.43;;
7607;SDS011;3845;48.120;11.534;2022-12-08T11:46:25;15.77;;;12.73;;
7607;SDS011;3845;48.120;11.534;2022-12-08T11:49:02;18.20;;;12.37;;
7607;SDS011;3845;48.120;11.534;2022-12-08T11:54:41;16.50;;;12.23;;
7607;SDS011;3845;48.120;11.534;2022-12-08T11:57:13;15.43;;;11.67;;
7607;SDS011;3845;48.120;11.534;2022-12-08T11:59:43;16.73;;;13.60;;
7607;SDS011;3845;48.120;11.534;2022-12-08T12:02:12;18.87;;;12.83;;
7607;SDS011;3845;48.120;11.534;2022-12-08T12:20:20;18.40;;;13.07;;
7607;SDS011;3845;48.120;11.534;2022-12-08T12:22:51;16.07;;;11.80;;
7607;SDS011;3845;48.120;11.534;2022-12-08T12:25:24;14.37;;;11.80;;
7607;SDS011;3845;48.120;11.534;2022-12-08T12:27:50;14.47;;;11.03;;
7607;SDS011;3845;48.120;11.534;2022-12-08T12:30:24;14.47;;;10.87;;
7607;SDS011;3845;48.120;11.534;2022-12-08T12:32:51;15.10;;;11.07;;
7607;SDS011;3845;48.120;11.534;2022-12-08T12:35:36;19.07;;;13.00;;
7607;SDS011;3845;48.120;11.534;2022-12-08T12:38:06;16.57;;;12.10;;
7607;SDS011;3845;48.120;11.534;2022-12-08T12:41:00;17.70;;;13.57;;
7607;SDS011;3845;48.120;11.534;2022-12-08T12:43:27;26.93;;;18.57;;
7607;SDS011;3845;48.120;11.534;2022-12-08T12:48:48;17.90;;;13.57;;
7607;SDS011;3845;48.120;11.534;2022-12-08T12:54:20;17.03;;;11.90;;
7607;SDS011;3845;48.120;11.534;2022-12-08T12:59:38;15.03;;;11.57;;
7607;SDS011;3845;48.120;11.534;2022-12-08T13:05:00;13.83;;;10.50;;
7607;SDS011;3845;48.120;11.534;2022-12-08T13:07:32;15.10;;;11.10;;
7607;SDS011;3845;48.120;11.534;2022-12-08T13:10:01;17.40;;;12.03;;
7607;SDS011;3845;48.120;11.534;2022-12-08T13:12:34;16.03;;;12.30;;
7607;SDS011;3845;48.120;11.534;2022-12-08T13:15:01;20.03;;;13.17;;
7607;SDS011;3845;48.120;11.534;2022-12-08T13:17:29;18.07;;;12.67;;
7607;SDS011;3845;48.120;11.534;2022-12-08T13:19:58;15.67;;;11.50;;
7607;SDS011;3845;48.120;11.534;2022-12-08T13:30:43;14.77;;;10.83;;
7607;SDS011;3845;48.120;11.534;2022-12-08T13:36:16;13.87;;;9.83;;
7607;SDS011;3845;48.120;11.534;2022-12-08T13:38:45;13.57;;;10.80;;
7607;SDS011;3845;48.120;11.534;2022-12-08T13:41:12;14.87;;;10.83;;
7607;SDS011;3845;48.120;11.534;2022-12-08T13:43:49;14.87;;;11.30;;
7607;SDS011;3845;48.120;11.534;2022-12-08T13:46:19;13.13;;;10.40;;
7607;SDS011;3845;48.120;11.534;2022-12-08T13:48:53;13.10;;;10.23;;
7607;SDS011;3845;48.120;11.534;2022-12-08T13:51:21;13.73;;;10.03;;
7607;SDS011;3845;48.120;11.534;2022-12-08T13:54:31;12.67;;;9.77;;
7607;SDS011;3845;48.120;11.534;2022-12-08T13:56:41;13.80;;;10.73;;
7607;SDS011;3845;48.120;11.534;2022-12-08T13:59:24;18.30;;;13.73;;
7607;SDS011;3845;48.120;11.534;2022-12-08T14:01:54;28.47;;;19.13;;
7607;SDS011;3845;48.120;11.534;2022-12-08T14:04:22;21.10;;;15.50;;
7607;SDS011;3845;48.120;11.534;2022-12-08T14:06:48;18.17;;;13.47;;
7607;SDS011;3845;48.120;11.534;2022-12-08T14:09:20;17.00;;;13.50;;
7607;SDS011;3845;48.120;11.534;2022-12-08T14:11:50;16.70;;;12.50;;
7607;SDS011;3845;48.120;11.534;2022-12-08T14:14:56;20.80;;;13.60;;
7607;SDS011;3845;48.120;11.534;2022-12-08T14:17:23;18.57;;;12.47;;
7607;SDS011;3845;48.120;11.534;2022-12-08T14:19:53;18.47;;;12.50;;
7607;SDS011;3845;48.120;11.534;2022-12-08T14:22:21;17.30;;;13.93;;
7607;SDS011;3845;48.120;11.534;2022-12-08T14:24:51;15.70;;;12.37;;
7607;SDS011;3845;48.120;11.534;2022-12-08T14:27:19;21.10;;;13.73;;
7607;SDS011;3845;48.120;11.534;2022-12-08T14:29:47;16.90;;;12.63;;
7607;SDS011;3845;48.120;11.534;2022-12-08T14:37:41;17.50;;;12.67;;
7607;SDS011;3845;48.120;11.534;2022-12-08T14:40:21;16.37;;;10.83;;
7607;SDS011;3845;48.120;11.534;2022-12-08T14:43:02;15.23;;;11.13;;
7607;SDS011;3845;48.120;11.534;2022-12-08T14:45:30;15.10;;;12.13;;
7607;SDS011;3845;48.120;11.534;2022-12-08T14:48:16;15.60;;;11.63;;
7607;SDS011;3845;48.120;11.534;2022-12-08T14:53:38;16.07;;;11.77;;
7607;SDS011;3845;48.120;11.534;2022-12-08T14:56:13;17.43;;;12.53;;
7607;SDS011;3845;48.120;11.534;2022-12-08T14:58:40;15.27;;;11.83;;
7607;SDS011;3845;48.120;11.534;2022-12-08T15:01:05;17.37;;;11.80;;
7607;SDS011;3845;48.120;11.534;2022-12-08T15:03:32;17.23;;;12.13;;
7607;SDS011;3845;48.120;11.534;2022-12-08T15:05:58;17.13;;;12.67;;
7607;SDS011;3845;48.120;11.534;2022-12-08T15:08:28;21.70;;;13.83;;
7607;SDS011;3845;48.120;11.534;2022-12-08T15:13:47;16.90;;;12.77;;
7607;SDS011;3845;48.120;11.534;2022-12-08T15:16:24;17.23;;;12.57;;
7607;SDS011;3845;48.120;11.534;2022-12-08T15:21:40;17.87;;;12.40;;
7607;SDS011;3845;48.120;11.534;2022-12-08T15:24:08;17.40;;;12.73;;
7607;SDS011;3845;48.120;11.534;2022-12-08T15:26:40;15.97;;;12.00;;
7607;SDS011;3845;48.120;11.534;2022-12-08T15:29:09;14.70;;;11.00;;
7607;SDS011;3845;48.120;11.534;2022-12-08T15:31:41;16.43;;;12.53;;
7607;SDS011;3845;48.120;11.534;2022-12-08T15:34:07;19.07;;;14.00;;
7607;SDS011;3845;48.120;11.534;2022-12-08T15:36:32;18.43;;;13.90;;
7607;SDS011;3845;48.120;11.534;2022-12-08T15:38:57;16.20;;;12.73;;
7607;SDS011;3845;48.120;11.534;2022-12-08T15:41:23;15.97;;;11.83;;
7607;SDS011;3845;48.120;11.534;2022-12-08T15:43:48;17.17;;;12.13;;
7607;SDS011;3845;48.120;11.534;2022-12-08T15:46:13;16.80;;;12.10;;
7607;SDS011;3845;48.120;11.534;2022-12-08T15:48:38;21.33;;;14.70;;
7607;SDS011;3845;48.120;11.534;2022-12-08T15:51:04;19.13;;;14.30;;
7607;SDS011;3845;48.120;11.534;2022-12-08T15:53:29;17.67;;;13.30;;
7607;SDS011;3845;48.120;11.534;2022-12-08T15:55:54;17.60;;;12.20;;
7607;SDS011;3845;48.120;11.534;2022-12-08T15:58:23;16.87;;;12.07;;
7607;SDS011;3845;48.120;11.534;2022-12-08T16:00:49;17.67;;;12.50;;
7607;SDS011;3845;48.120;11.534;2022-12-08T16:03:25;15.63;;;11.97;;
7607;SDS011;3845;48.120;11.534;2022-12-08T16:05:55;15.00;;;11.80;;
7607;SDS011;3845;48.120;11.534;2022-12-08T16:08:21;16.00;;;12.53;;
7607;SDS011;3845;48.120;11.534;2022-12-08T16:10:47;17.57;;;12.07;;
7607;SDS011;3845;48.120;11.534;2022-12-08T16:13:16;15.00;;;11.47;;
7607;SDS011;3845;48.120;11.534;2022-12-08T16:16:01;17.17;;;12.90;;
7607;SDS011;3845;48.120;11.534;2022-12-08T16:18:31;17.93;;;13.13;;
7607;SDS011;3845;48.120;11.534;2022-12-08T16:20:58;16.20;;;12.37;;
7607;SDS011;3845;48.120;11.534;2022-12-08T16:23:24;14.93;;;11.73;;
7607;SDS011;3845;48.120;11.534;2022-12-08T16:25:49;16.13;;;11.70;;
7607;SDS011;3845;48.120;11.534;2022-12-08T16:28:14;14.20;;;10.60;;